BEC weather

Becerril Airport
Becerril, César Department, Colombia

Public forecast

Using degrees Celsius for public forecast. Weather courtesy of forecast.io.

METAR (pilot weather report)

Closest report is Alfonso López Pumarejo Airport, 46.4 nm (85.9 km) N. Retrieved 2019/05/26 04:00 UTC (39 minutes ago):

SKVP 260400Z 00000KT 9999 FEW020 BKN090 26/24 A2991

TAF (pilot weather forecast)

Forecast is more than 6 hours old.

Closest forecast is La Chinita International Airport, 106.0 nm (196.4 km) ENE. Retrieved 2019/05/25 18:05 UTC (11 hours ago):

TAF SVMC 251600Z 2518/2618 09006KT 9999 SCT013 TX35/19Z TN25/07Z TEMPO 2518/2522 VRB08KT 8000 DZ OBKN013